Time;durP1;ratioP1;P1;durP2;ratioP2;P2;SDS_P1;SDS_P2;PMS_P1;PMS_P2;Temp;Humidity;BMP_temperature;BMP_pressure;BME280_temperature;BME280_humidity;BME280_pressure;Samples;Min_cycle;Max_cycle;Signal;HPM_P1;HPM_P2
2021/11/16 00:01:01;;;;;;;87.13;18.53;;;;;;;;;;5072563;28;20841;-67
2021/11/16 00:03:28;;;;;;;90.03;19.03;;;;;;;;;;5072604;28;20956;-66
2021/11/16 00:05:56;;;;;;;87.00;18.83;;;;;;;;;;5072389;28;20451;-66
2021/11/16 00:08:23;;;;;;;86.93;18.77;;;;;;;;;;5072515;28;21017;-66
2021/11/16 00:10:50;;;;;;;88.23;19.47;;;;;;;;;;5072514;28;20464;-66
2021/11/16 00:13:17;;;;;;;88.87;18.27;;;;;;;;;;5072182;28;20459;-66
2021/11/16 00:15:45;;;;;;;84.30;18.33;;;;;;;;;;5072272;28;20444;-66
2021/11/16 00:18:16;;;;;;;87.30;18.42;;;;;;;;;;5072567;28;20676;-66
2021/11/16 00:20:44;;;;;;;93.37;19.27;;;;;;;;;;5072398;28;20313;-65
2021/11/16 00:23:17;;;;;;;89.07;18.57;;;;;;;;;;5072329;28;20804;-67
2021/11/16 00:25:44;;;;;;;87.27;19.00;;;;;;;;;;5071863;28;20452;-66
2021/11/16 00:28:11;;;;;;;92.15;20.05;;;;;;;;;;5071944;28;20847;-65
2021/11/16 00:30:40;;;;;;;98.27;21.60;;;;;;;;;;5072280;28;20252;-67
2021/11/16 00:33:07;;;;;;;86.07;18.63;;;;;;;;;;5072494;28;20450;-66
2021/11/16 00:35:38;;;;;;;90.67;19.23;;;;;;;;;;5071808;28;20452;-66
2021/11/16 00:38:05;;;;;;;85.43;19.00;;;;;;;;;;5072164;28;20456;-66
2021/11/16 00:40:32;;;;;;;82.07;16.90;;;;;;;;;;5071801;28;20456;-66
2021/11/16 00:42:59;;;;;;;87.77;18.13;;;;;;;;;;5071833;28;20473;-65
2021/11/16 00:45:27;;;;;;;85.43;18.07;;;;;;;;;;5071746;28;20457;-65
2021/11/16 00:47:55;;;;;;;90.57;16.63;;;;;;;;;;5071807;28;21008;-66
2021/11/16 00:50:22;;;;;;;84.20;16.43;;;;;;;;;;5071831;28;20457;-66
2021/11/16 00:52:51;;;;;;;81.30;15.00;;;;;;;;;;5071759;28;20452;-66
2021/11/16 00:55:18;;;;;;;84.53;17.77;;;;;;;;;;5071917;28;20451;-66
2021/11/16 00:57:45;;;;;;;84.97;16.90;;;;;;;;;;5071755;28;20540;-66
2021/11/16 01:00:14;;;;;;;84.27;17.47;;;;;;;;;;5071992;28;20453;-66
2021/11/16 01:02:41;;;;;;;84.83;18.10;;;;;;;;;;5071740;28;20452;-66
2021/11/16 01:05:09;;;;;;;91.00;18.63;;;;;;;;;;5071598;28;20443;-67
2021/11/16 01:07:36;;;;;;;82.90;18.00;;;;;;;;;;5071273;28;20484;-66
2021/11/16 01:10:05;;;;;;;83.57;16.38;;;;;;;;;;5071853;28;20451;-66
2021/11/16 01:12:32;;;;;;;81.67;15.63;;;;;;;;;;5071665;28;20238;-66
2021/11/16 01:15:00;;;;;;;88.07;17.27;;;;;;;;;;5071619;28;20454;-66
2021/11/16 01:17:27;;;;;;;82.27;17.30;;;;;;;;;;5071252;28;20441;-65
2021/11/16 01:19:54;;;;;;;87.63;17.57;;;;;;;;;;5071579;28;20479;-67
2021/11/16 01:22:21;;;;;;;87.67;19.63;;;;;;;;;;5071397;28;20839;-66
2021/11/16 01:24:48;;;;;;;87.53;18.33;;;;;;;;;;5073307;28;20440;-66
2021/11/16 01:27:20;;;;;;;87.53;18.50;;;;;;;;;;5075486;28;20483;-67
2021/11/16 01:29:47;;;;;;;88.07;17.30;;;;;;;;;;5075735;28;20456;-65
2021/11/16 01:32:27;;;;;;;84.23;17.90;;;;;;;;;;5075543;28;21209;-66
2021/11/16 01:34:54;;;;;;;86.80;18.40;;;;;;;;;;5075683;28;20458;-66
2021/11/16 01:37:22;;;;;;;91.70;19.03;;;;;;;;;;5075381;28;20447;-66
2021/11/16 01:39:50;;;;;;;83.67;17.00;;;;;;;;;;5075365;28;20465;-66
2021/11/16 01:42:18;;;;;;;91.70;18.30;;;;;;;;;;5075346;28;20484;-66
2021/11/16 01:44:46;;;;;;;88.43;18.25;;;;;;;;;;5075205;28;20836;-66
2021/11/16 01:47:13;;;;;;;88.05;17.90;;;;;;;;;;5074846;28;20225;-66
2021/11/16 01:49:40;;;;;;;86.83;17.90;;;;;;;;;;5075221;28;20702;-66
2021/11/16 01:52:07;;;;;;;84.07;17.83;;;;;;;;;;5074708;28;20479;-66
2021/11/16 01:54:35;;;;;;;87.82;19.98;;;;;;;;;;5074885;28;20678;-66
2021/11/16 01:57:03;;;;;;;85.60;17.05;;;;;;;;;;5074482;28;20204;-66
2021/11/16 01:59:32;;;;;;;85.60;16.67;;;;;;;;;;5075033;28;20206;-66
2021/11/16 02:02:01;;;;;;;86.00;16.83;;;;;;;;;;5074886;28;20230;-65
2021/11/16 02:04:28;;;;;;;92.10;20.77;;;;;;;;;;5075121;28;20238;-65
2021/11/16 02:06:55;;;;;;;87.43;18.02;;;;;;;;;;5074554;28;20970;-66
2021/11/16 02:09:22;;;;;;;85.60;18.38;;;;;;;;;;5074880;28;20213;-66
2021/11/16 02:11:49;;;;;;;92.40;19.00;;;;;;;;;;5074764;28;20231;-66
2021/11/16 02:14:17;;;;;;;85.57;18.42;;;;;;;;;;5074598;28;20266;-66
2021/11/16 02:16:47;;;;;;;92.13;20.00;;;;;;;;;;5074591;28;20674;-66
2021/11/16 02:19:15;;;;;;;86.55;19.25;;;;;;;;;;5074593;28;20449;-67
2021/11/16 02:21:43;;;;;;;92.03;20.73;;;;;;;;;;5074541;28;20235;-65
2021/11/16 02:24:11;;;;;;;89.80;19.48;;;;;;;;;;5074547;28;20443;-66
2021/11/16 02:26:39;;;;;;;87.17;16.77;;;;;;;;;;5074044;28;20585;-65
2021/11/16 02:29:07;;;;;;;91.72;18.90;;;;;;;;;;5074531;28;20565;-65
2021/11/16 02:31:34;;;;;;;85.50;18.37;;;;;;;;;;5074362;28;20725;-66
2021/11/16 02:34:02;;;;;;;84.57;16.70;;;;;;;;;;5074767;28;20450;-66
2021/11/16 02:36:30;;;;;;;86.05;17.30;;;;;;;;;;5072381;28;20671;-66
2021/11/16 02:38:59;;;;;;;90.80;18.05;;;;;;;;;;5074358;28;20230;-66
2021/11/16 02:41:31;;;;;;;85.22;18.38;;;;;;;;;;5074309;28;20238;-65
2021/11/16 02:43:59;;;;;;;82.87;17.47;;;;;;;;;;5074400;28;20293;-66
2021/11/16 02:46:26;;;;;;;85.95;18.00;;;;;;;;;;5073748;28;20497;-66
2021/11/16 02:48:53;;;;;;;87.05;17.52;;;;;;;;;;5074256;28;20233;-65
2021/11/16 02:51:20;;;;;;;83.50;18.10;;;;;;;;;;5073991;28;20231;-66
2021/11/16 02:53:48;;;;;;;79.40;16.40;;;;;;;;;;5074142;28;20219;-66
2021/11/16 02:56:16;;;;;;;83.03;14.27;;;;;;;;;;5073441;28;20460;-66
2021/11/16 02:58:44;;;;;;;82.35;15.00;;;;;;;;;;5074047;28;20892;-66
2021/11/16 03:01:12;;;;;;;84.50;15.90;;;;;;;;;;5073743;28;20744;-65
2021/11/16 03:03:39;;;;;;;88.00;16.80;;;;;;;;;;5073942;28;20449;-66
2021/11/16 03:06:07;;;;;;;84.17;17.73;;;;;;;;;;5073452;28;20205;-66
2021/11/16 03:08:35;;;;;;;83.57;17.10;;;;;;;;;;5073719;28;20482;-66
2021/11/16 03:11:05;;;;;;;86.70;15.97;;;;;;;;;;5073799;28;20473;-66
2021/11/16 03:13:36;;;;;;;86.78;15.30;;;;;;;;;;5073531;28;20926;-66
2021/11/16 03:16:04;;;;;;;80.90;14.73;;;;;;;;;;5073445;28;20206;-65
2021/11/16 03:18:31;;;;;;;82.93;16.63;;;;;;;;;;5073650;28;20442;-67
2021/11/16 03:20:58;;;;;;;86.82;16.83;;;;;;;;;;5073462;28;20574;-66
2021/11/16 03:23:26;;;;;;;85.17;18.20;;;;;;;;;;5073429;28;20207;-66
2021/11/16 03:25:56;;;;;;;82.17;16.93;;;;;;;;;;5073242;28;20449;-66
2021/11/16 03:28:24;;;;;;;88.27;18.00;;;;;;;;;;5073778;28;20480;-66
2021/11/16 03:30:54;;;;;;;81.47;15.97;;;;;;;;;;5073431;28;20781;-66
2021/11/16 03:33:22;;;;;;;87.10;16.53;;;;;;;;;;5073326;28;20453;-66
2021/11/16 03:35:50;;;;;;;85.50;17.00;;;;;;;;;;5072810;28;20451;-66
2021/11/16 03:38:18;;;;;;;86.00;17.45;;;;;;;;;;5073364;28;20440;-67
2021/11/16 03:40:46;;;;;;;86.93;17.07;;;;;;;;;;5072954;28;20715;-66
2021/11/16 03:43:15;;;;;;;80.23;14.90;;;;;;;;;;5073017;28;20463;-66
2021/11/16 03:45:42;;;;;;;84.33;17.20;;;;;;;;;;5072624;28;20554;-65
2021/11/16 03:48:11;;;;;;;85.67;18.17;;;;;;;;;;5072392;28;20481;-66
2021/11/16 03:50:40;;;;;;;82.47;16.70;;;;;;;;;;5073031;28;20480;-67
2021/11/16 03:53:07;;;;;;;79.50;14.50;;;;;;;;;;5073144;28;20453;-67
2021/11/16 03:55:35;;;;;;;84.23;17.97;;;;;;;;;;5072274;28;20671;-66
2021/11/16 03:58:04;;;;;;;86.72;17.80;;;;;;;;;;5072753;28;20445;-65
2021/11/16 04:00:32;;;;;;;88.80;17.90;;;;;;;;;;5072650;28;20203;-65
2021/11/16 04:02:59;;;;;;;82.87;15.80;;;;;;;;;;5072648;28;20208;-66
2021/11/16 04:05:28;;;;;;;87.40;17.60;;;;;;;;;;5072622;28;20470;-63
2021/11/16 04:07:55;;;;;;;83.30;16.87;;;;;;;;;;5072684;28;20487;-65
2021/11/16 04:10:23;;;;;;;87.28;17.25;;;;;;;;;;5072470;28;20456;-66
2021/11/16 04:12:51;;;;;;;84.68;17.23;;;;;;;;;;5072541;28;20208;-66
2021/11/16 04:15:21;;;;;;;84.87;19.40;;;;;;;;;;5072298;28;20223;-66
2021/11/16 04:17:48;;;;;;;81.70;16.33;;;;;;;;;;5072539;28;20480;-66
2021/11/16 04:20:16;;;;;;;87.07;18.07;;;;;;;;;;5072584;28;20456;-66
2021/11/16 04:22:44;;;;;;;85.88;18.42;;;;;;;;;;5072418;28;20451;-65
2021/11/16 04:25:12;;;;;;;86.85;18.40;;;;;;;;;;5072091;28;20212;-66
2021/11/16 04:27:40;;;;;;;88.07;17.27;;;;;;;;;;5071793;28;20212;-66
2021/11/16 04:30:09;;;;;;;91.65;18.85;;;;;;;;;;5071980;28;20463;-65
2021/11/16 04:32:36;;;;;;;88.22;17.80;;;;;;;;;;5072231;28;20226;-66
2021/11/16 04:35:03;;;;;;;85.75;17.83;;;;;;;;;;5072225;28;20613;-66
2021/11/16 04:37:30;;;;;;;79.43;15.25;;;;;;;;;;5071823;28;20589;-66
2021/11/16 04:39:59;;;;;;;82.00;16.10;;;;;;;;;;5072020;28;20208;-67
2021/11/16 04:42:27;;;;;;;87.60;17.95;;;;;;;;;;5071672;28;20635;-65
2021/11/16 04:44:54;;;;;;;86.03;17.93;;;;;;;;;;5072081;28;20237;-66
2021/11/16 04:47:27;;;;;;;84.47;17.30;;;;;;;;;;5071801;28;20455;-66
2021/11/16 04:49:59;;;;;;;85.40;17.30;;;;;;;;;;5071929;28;20221;-65
2021/11/16 04:52:32;;;;;;;84.97;17.63;;;;;;;;;;5072292;28;20231;-66
2021/11/16 05:03:15;;;;;;;87.47;18.48;;;;;;;;;;5071702;28;20672;-66
2021/11/16 05:05:42;;;;;;;86.97;17.80;;;;;;;;;;5071659;28;20213;-66
2021/11/16 05:08:09;;;;;;;86.45;18.25;;;;;;;;;;5071533;28;20229;-66
2021/11/16 05:10:37;;;;;;;94.57;17.88;;;;;;;;;;5071537;28;20717;-66
2021/11/16 05:13:04;;;;;;;83.70;17.90;;;;;;;;;;5071740;28;20205;-65
2021/11/16 05:15:34;;;;;;;88.60;20.43;;;;;;;;;;5071267;28;20970;-66
2021/11/16 05:18:01;;;;;;;86.28;17.05;;;;;;;;;;5071431;28;20458;-65
2021/11/16 05:20:28;;;;;;;88.20;18.92;;;;;;;;;;5071687;28;20212;-66
2021/11/16 05:22:56;;;;;;;90.60;18.20;;;;;;;;;;5071775;28;20210;-65
2021/11/16 05:25:23;;;;;;;88.55;19.00;;;;;;;;;;5071397;28;20923;-66
2021/11/16 05:27:51;;;;;;;97.55;19.35;;;;;;;;;;5071396;28;20216;-67
2021/11/16 05:30:26;;;;;;;87.63;20.07;;;;;;;;;;5071260;28;20213;-67
2021/11/16 05:32:53;;;;;;;87.80;18.23;;;;;;;;;;5071713;28;20482;-65
2021/11/16 05:35:21;;;;;;;88.75;18.33;;;;;;;;;;5071455;28;20201;-66
2021/11/16 05:37:48;;;;;;;86.68;17.65;;;;;;;;;;5071386;28;20578;-67
2021/11/16 05:40:15;;;;;;;89.03;17.95;;;;;;;;;;5071374;28;20217;-65
2021/11/16 05:42:42;;;;;;;82.85;17.60;;;;;;;;;;5071308;28;20227;-67
2021/11/16 05:45:11;;;;;;;89.77;20.97;;;;;;;;;;5071166;28;20210;-67
2021/11/16 05:47:41;;;;;;;87.70;18.02;;;;;;;;;;5071243;28;20512;-66
2021/11/16 05:50:09;;;;;;;89.07;18.92;;;;;;;;;;5071383;28;20232;-64
2021/11/16 05:52:36;;;;;;;89.60;18.15;;;;;;;;;;5071181;28;20271;-64
2021/11/16 05:55:03;;;;;;;88.03;16.92;;;;;;;;;;5071128;28;20677;-65
2021/11/16 05:57:30;;;;;;;88.35;17.73;;;;;;;;;;5070850;28;20205;-64
2021/11/16 05:59:58;;;;;;;85.75;18.02;;;;;;;;;;5071327;28;20197;-64
2021/11/16 06:02:26;;;;;;;92.95;19.05;;;;;;;;;;5071201;28;20237;-64
2021/11/16 06:04:53;;;;;;;89.65;19.13;;;;;;;;;;5071174;28;20214;-65
2021/11/16 06:07:20;;;;;;;94.78;18.08;;;;;;;;;;5070899;28;20212;-63
2021/11/16 06:09:48;;;;;;;95.05;20.58;;;;;;;;;;5070973;28;20704;-65
2021/11/16 06:12:15;;;;;;;93.25;19.42;;;;;;;;;;5074659;28;20626;-66
2021/11/16 06:14:43;;;;;;;89.32;18.27;;;;;;;;;;5074848;28;20202;-67
2021/11/16 06:17:10;;;;;;;92.07;18.52;;;;;;;;;;5074576;28;20212;-66
2021/11/16 06:19:41;;;;;;;90.13;17.92;;;;;;;;;;5074721;28;20687;-66
2021/11/16 06:22:09;;;;;;;89.35;18.35;;;;;;;;;;5074561;28;20250;-67
2021/11/16 06:24:37;;;;;;;91.75;17.92;;;;;;;;;;5074462;28;20263;-66
2021/11/16 06:27:05;;;;;;;98.35;20.23;;;;;;;;;;5074267;28;20252;-64
2021/11/16 06:29:32;;;;;;;86.90;19.23;;;;;;;;;;5074623;28;20229;-67
2021/11/16 06:31:59;;;;;;;89.47;18.40;;;;;;;;;;5074496;28;20225;-65
2021/11/16 06:34:26;;;;;;;100.68;19.13;;;;;;;;;;5074403;28;20206;-66
2021/11/16 06:36:55;;;;;;;91.65;19.02;;;;;;;;;;5073918;28;20682;-66
2021/11/16 06:39:22;;;;;;;95.68;17.60;;;;;;;;;;5074295;28;20206;-66
2021/11/16 06:41:50;;;;;;;98.68;20.13;;;;;;;;;;5074268;28;20237;-66
2021/11/16 06:44:19;;;;;;;90.68;19.48;;;;;;;;;;5074200;28;20216;-67
2021/11/16 06:46:46;;;;;;;94.95;17.92;;;;;;;;;;5073963;28;20266;-66
2021/11/16 06:49:13;;;;;;;98.93;18.33;;;;;;;;;;5074102;28;20239;-67
2021/11/16 06:51:42;;;;;;;91.78;17.10;;;;;;;;;;5073927;28;20225;-67
2021/11/16 06:54:11;;;;;;;82.70;17.27;;;;;;;;;;5074069;28;20213;-65
2021/11/16 06:56:38;;;;;;;91.53;19.55;;;;;;;;;;5073636;28;20669;-65
2021/11/16 06:59:06;;;;;;;92.43;17.75;;;;;;;;;;5074233;28;20209;-63
2021/11/16 07:01:36;;;;;;;90.00;18.00;;;;;;;;;;5073956;28;20226;-66
2021/11/16 07:04:08;;;;;;;88.00;18.13;;;;;;;;;;5073849;28;20243;-65
2021/11/16 07:06:36;;;;;;;89.57;16.45;;;;;;;;;;5073794;28;20210;-65
2021/11/16 07:09:03;;;;;;;84.38;16.02;;;;;;;;;;5074104;28;20225;-65
2021/11/16 07:11:32;;;;;;;84.00;17.13;;;;;;;;;;5073660;28;20743;-65
2021/11/16 07:14:01;;;;;;;86.03;16.98;;;;;;;;;;5073739;28;20592;-64
2021/11/16 07:16:30;;;;;;;90.80;17.58;;;;;;;;;;5072863;28;20584;-64
2021/11/16 07:18:57;;;;;;;83.75;14.95;;;;;;;;;;5073517;28;20216;-65
2021/11/16 07:21:26;;;;;;;86.47;17.77;;;;;;;;;;5073293;28;20229;-64
2021/11/16 07:24:04;;;;;;;86.63;16.80;;;;;;;;;;5073001;28;20209;-65
2021/11/16 07:26:33;;;;;;;98.95;15.18;;;;;;;;;;5073170;28;20227;-65
2021/11/16 07:29:00;;;;;;;88.00;16.10;;;;;;;;;;5073762;28;20231;-65
2021/11/16 07:31:27;;;;;;;81.88;14.65;;;;;;;;;;5073528;28;20222;-65
2021/11/16 07:33:59;;;;;;;83.97;16.48;;;;;;;;;;5073495;28;20586;-64
2021/11/16 07:36:26;;;;;;;79.68;16.13;;;;;;;;;;5072941;28;20227;-65
2021/11/16 07:38:53;;;;;;;87.28;15.70;;;;;;;;;;5073142;28;20204;-65
2021/11/16 07:41:22;;;;;;;82.45;14.18;;;;;;;;;;5073063;28;20229;-65
2021/11/16 07:43:50;;;;;;;79.72;13.95;;;;;;;;;;5073131;28;20212;-65
2021/11/16 07:46:18;;;;;;;81.78;15.18;;;;;;;;;;5072711;28;20201;-65
2021/11/16 07:48:45;;;;;;;83.18;14.80;;;;;;;;;;5073148;28;20592;-66
2021/11/16 07:51:13;;;;;;;83.47;13.73;;;;;;;;;;5072875;28;20229;-65
2021/11/16 07:53:41;;;;;;;80.40;14.57;;;;;;;;;;5072913;28;20639;-66
2021/11/16 07:56:10;;;;;;;82.05;15.73;;;;;;;;;;5072492;28;20200;-66
2021/11/16 07:58:38;;;;;;;81.88;14.73;;;;;;;;;;5073089;28;20210;-65
2021/11/16 08:01:09;;;;;;;78.78;14.65;;;;;;;;;;5072967;28;20393;-65
2021/11/16 08:03:43;;;;;;;78.85;14.50;;;;;;;;;;5072880;28;20296;-65
2021/11/16 08:06:15;;;;;;;79.57;14.35;;;;;;;;;;5072378;28;20294;-65
2021/11/16 08:09:03;;;;;;;81.97;14.45;;;;;;;;;;5072500;28;20209;-65
2021/11/16 08:11:33;;;;;;;83.30;13.80;;;;;;;;;;5072500;28;20229;-65
2021/11/16 08:14:05;;;;;;;72.88;12.32;;;;;;;;;;5072565;28;20221;-65
2021/11/16 08:16:34;;;;;;;81.17;13.67;;;;;;;;;;5072305;28;20739;-65
2021/11/16 08:19:06;;;;;;;77.43;13.43;;;;;;;;;;5072305;28;20536;-65
2021/11/16 08:21:34;;;;;;;75.18;12.75;;;;;;;;;;5072258;28;20236;-65
2021/11/16 08:24:06;;;;;;;76.53;12.82;;;;;;;;;;5072348;28;20697;-65
2021/11/16 08:26:34;;;;;;;84.32;13.63;;;;;;;;;;5072129;28;20203;-65
2021/11/16 08:29:02;;;;;;;77.20;12.48;;;;;;;;;;5072152;28;20322;-65
2021/11/16 08:31:36;;;;;;;76.50;12.73;;;;;;;;;;5072042;28;20225;-65
2021/11/16 08:34:06;;;;;;;77.82;12.60;;;;;;;;;;5072210;28;20516;-65
2021/11/16 08:36:43;;;;;;;74.00;12.73;;;;;;;;;;5071888;28;20216;-65
2021/11/16 08:39:10;;;;;;;73.68;12.38;;;;;;;;;;5072177;28;20590;-66
2021/11/16 08:41:39;;;;;;;75.53;12.05;;;;;;;;;;5071926;28;20234;-65
2021/11/16 08:44:15;;;;;;;75.07;10.77;;;;;;;;;;5071954;28;20762;-65
2021/11/16 08:46:42;;;;;;;78.60;12.63;;;;;;;;;;5071794;28;20206;-65
2021/11/16 08:49:21;;;;;;;80.45;13.57;;;;;;;;;;5072077;28;20611;-64
2021/11/16 08:51:49;;;;;;;73.38;11.82;;;;;;;;;;5071994;28;20226;-66
2021/11/16 08:54:24;;;;;;;78.03;13.20;;;;;;;;;;5071905;28;20293;-65
2021/11/16 08:56:51;;;;;;;73.45;12.10;;;;;;;;;;5071649;28;20195;-65
2021/11/16 08:59:20;;;;;;;80.27;12.60;;;;;;;;;;5071936;28;20199;-65
2021/11/16 09:01:54;;;;;;;76.88;13.88;;;;;;;;;;5071693;28;20524;-64
2021/11/16 09:04:26;;;;;;;79.23;13.07;;;;;;;;;;5071862;28;20245;-64
2021/11/16 09:06:53;;;;;;;73.38;11.32;;;;;;;;;;5071371;28;20542;-65
2021/11/16 09:09:22;;;;;;;75.53;12.70;;;;;;;;;;5071576;28;20265;-65
2021/11/16 09:11:56;;;;;;;74.45;12.52;;;;;;;;;;5071637;28;20564;-65
2021/11/16 09:14:23;;;;;;;76.20;12.48;;;;;;;;;;5071636;28;20202;-65
2021/11/16 09:16:51;;;;;;;76.50;14.50;;;;;;;;;;5071782;28;20213;-65
2021/11/16 09:19:26;;;;;;;75.97;11.83;;;;;;;;;;5071632;28;20293;-65
2021/11/16 09:21:53;;;;;;;74.47;12.23;;;;;;;;;;5071740;28;20970;-66
2021/11/16 09:24:21;;;;;;;75.68;12.32;;;;;;;;;;5071590;28;20452;-65
2021/11/16 09:26:58;;;;;;;75.85;11.18;;;;;;;;;;5071302;28;20694;-64
2021/11/16 09:29:27;;;;;;;75.45;12.15;;;;;;;;;;5071627;28;20264;-65
2021/11/16 09:31:55;;;;;;;74.20;12.20;;;;;;;;;;5071434;28;20648;-65
2021/11/16 09:34:26;;;;;;;76.27;12.17;;;;;;;;;;5071424;28;20213;-65
2021/11/16 09:36:56;;;;;;;74.63;12.23;;;;;;;;;;5071320;28;20480;-65
2021/11/16 09:39:25;;;;;;;73.53;11.63;;;;;;;;;;5071363;28;20449;-65
2021/11/16 09:41:54;;;;;;;72.80;10.87;;;;;;;;;;5071453;28;20478;-63
2021/11/16 09:44:23;;;;;;;74.10;12.55;;;;;;;;;;5071381;28;20444;-65
2021/11/16 09:46:53;;;;;;;78.00;11.73;;;;;;;;;;5074341;28;20278;-64
2021/11/16 09:49:26;;;;;;;72.60;10.50;;;;;;;;;;5075141;28;20298;-65
2021/11/16 09:52:00;;;;;;;79.20;13.55;;;;;;;;;;5075491;28;20221;-65
2021/11/16 09:54:27;;;;;;;76.03;12.50;;;;;;;;;;5075294;28;20212;-64
2021/11/16 09:57:11;;;;;;;77.85;11.77;;;;;;;;;;5075258;28;20641;-65
2021/11/16 09:59:39;;;;;;;74.70;12.23;;;;;;;;;;5075398;28;20201;-64
2021/11/16 10:02:06;;;;;;;73.07;12.20;;;;;;;;;;5075212;28;20329;-64
2021/11/16 10:04:41;;;;;;;74.28;12.77;;;;;;;;;;5075026;28;20201;-65
2021/11/16 10:07:10;;;;;;;78.53;12.60;;;;;;;;;;5074789;28;20208;-65
2021/11/16 10:09:41;;;;;;;77.93;11.77;;;;;;;;;;5074757;28;20225;-65
2021/11/16 10:12:09;;;;;;;73.90;11.82;;;;;;;;;;5074871;28;20224;-65
2021/11/16 10:14:36;;;;;;;75.45;12.18;;;;;;;;;;5075020;28;20636;-65
2021/11/16 10:17:03;;;;;;;75.80;10.93;;;;;;;;;;5074600;28;20594;-64
2021/11/16 10:19:30;;;;;;;74.63;12.95;;;;;;;;;;5074813;28;20210;-65
2021/11/16 10:21:57;;;;;;;76.70;11.77;;;;;;;;;;5074593;28;20318;-66
2021/11/16 10:24:30;;;;;;;82.77;14.00;;;;;;;;;;5074723;28;20451;-66
2021/11/16 10:27:02;;;;;;;74.25;12.00;;;;;;;;;;5074501;28;20451;-66
2021/11/16 10:29:30;;;;;;;75.10;12.63;;;;;;;;;;5074490;28;20293;-64
2021/11/16 10:31:58;;;;;;;78.30;13.07;;;;;;;;;;5074299;28;20476;-65
2021/11/16 10:34:39;;;;;;;74.97;11.82;;;;;;;;;;5074447;28;20900;-67
2021/11/16 10:37:07;;;;;;;72.80;11.50;;;;;;;;;;5073743;28;20299;-65
2021/11/16 10:39:36;;;;;;;71.30;9.90;;;;;;;;;;5074313;28;20239;-66
2021/11/16 10:42:06;;;;;;;75.00;10.80;;;;;;;;;;5073752;28;20547;-66
2021/11/16 10:44:36;;;;;;;73.40;11.25;;;;;;;;;;5074263;28;20260;-66
2021/11/16 10:47:05;;;;;;;73.75;11.65;;;;;;;;;;5073581;28;20495;-66
2021/11/16 10:49:32;;;;;;;74.40;10.70;;;;;;;;;;5074333;28;20213;-66
2021/11/16 10:51:59;;;;;;;77.20;12.00;;;;;;;;;;5074075;28;20726;-65
2021/11/16 10:54:26;;;;;;;77.75;11.85;;;;;;;;;;5073934;28;20487;-65
2021/11/16 10:57:00;;;;;;;74.85;11.10;;;;;;;;;;5071995;28;20292;-65
2021/11/16 10:59:29;;;;;;;77.13;11.63;;;;;;;;;;5073927;28;20255;-65
2021/11/16 11:01:57;;;;;;;75.68;11.65;;;;;;;;;;5073930;28;20231;-65
2021/11/16 11:04:26;;;;;;;77.60;10.82;;;;;;;;;;5074409;28;20208;-65
2021/11/16 11:06:54;;;;;;;73.43;10.35;;;;;;;;;;5073769;28;20292;-66
2021/11/16 11:09:21;;;;;;;69.57;10.02;;;;;;;;;;5073644;28;20209;-65
2021/11/16 11:11:50;;;;;;;75.43;10.50;;;;;;;;;;5073252;28;20230;-66
2021/11/16 11:14:19;;;;;;;73.43;11.10;;;;;;;;;;5073447;28;20218;-65
2021/11/16 11:16:51;;;;;;;71.68;10.38;;;;;;;;;;5062607;28;20202;-66
2021/11/16 11:19:19;;;;;;;73.43;9.93;;;;;;;;;;5053801;28;20562;-64
2021/11/16 11:21:49;;;;;;;73.88;10.07;;;;;;;;;;5053571;28;20225;-64
2021/11/16 11:24:22;;;;;;;74.05;9.40;;;;;;;;;;5053898;28;20511;-64
2021/11/16 11:26:55;;;;;;;72.38;9.85;;;;;;;;;;5052532;28;20263;-63
2021/11/16 11:29:42;;;;;;;71.82;9.45;;;;;;;;;;5053572;28;20240;-64
2021/11/16 11:32:15;;;;;;;69.32;8.77;;;;;;;;;;5053223;28;20264;-66
2021/11/16 11:34:44;;;;;;;67.65;7.85;;;;;;;;;;5053226;28;20210;-66
2021/11/16 11:37:14;;;;;;;71.50;9.65;;;;;;;;;;5052625;28;20592;-65
2021/11/16 11:39:41;;;;;;;71.88;9.27;;;;;;;;;;5052908;28;20205;-66
2021/11/16 11:42:12;;;;;;;72.70;8.90;;;;;;;;;;5052478;28;20288;-66
2021/11/16 11:44:44;;;;;;;69.82;9.50;;;;;;;;;;5052983;28;20456;-65
2021/11/16 11:47:22;;;;;;;72.22;9.75;;;;;;;;;;5052621;28;20215;-66
2021/11/16 11:49:49;;;;;;;69.53;8.80;;;;;;;;;;5052275;28;20853;-67
2021/11/16 11:52:16;;;;;;;72.18;10.77;;;;;;;;;;5052660;28;20226;-66
2021/11/16 11:54:44;;;;;;;69.57;9.73;;;;;;;;;;5052381;28;20206;-67
2021/11/16 11:57:11;;;;;;;73.65;10.00;;;;;;;;;;5051856;28;20305;-66
2021/11/16 11:59:38;;;;;;;71.53;9.80;;;;;;;;;;5052666;28;20739;-65
2021/11/16 12:02:08;;;;;;;75.25;11.52;;;;;;;;;;5052973;28;20249;-64
2021/11/16 12:04:37;;;;;;;75.60;10.90;;;;;;;;;;5053236;28;20212;-64
2021/11/16 12:07:05;;;;;;;71.80;9.52;;;;;;;;;;5052549;28;20241;-63
2021/11/16 12:09:32;;;;;;;76.38;11.77;;;;;;;;;;5052386;28;20239;-64
2021/11/16 12:11:59;;;;;;;72.05;10.40;;;;;;;;;;5052124;28;20240;-64
2021/11/16 12:14:34;;;;;;;74.57;10.00;;;;;;;;;;5052380;28;20296;-63
2021/11/16 12:17:04;;;;;;;75.72;10.65;;;;;;;;;;5052384;28;20301;-64
2021/11/16 12:19:43;;;;;;;77.65;9.48;;;;;;;;;;5052560;28;20296;-64
2021/11/16 12:22:23;;;;;;;71.32;9.77;;;;;;;;;;5052411;28;20269;-65
2021/11/16 12:24:51;;;;;;;74.50;10.88;;;;;;;;;;5052135;28;20212;-65
2021/11/16 12:27:20;;;;;;;71.93;10.27;;;;;;;;;;5055591;28;20214;-65
2021/11/16 12:29:48;;;;;;;78.57;10.82;;;;;;;;;;5072192;28;20214;-65
2021/11/16 12:32:21;;;;;;;71.93;10.10;;;;;;;;;;5071724;28;20236;-65
2021/11/16 12:34:51;;;;;;;76.50;11.10;;;;;;;;;;5070656;28;20204;-66
2021/11/16 12:37:38;;;;;;;74.28;11.07;;;;;;;;;;5071746;28;20216;-65
2021/11/16 12:40:07;;;;;;;69.65;8.65;;;;;;;;;;5072063;28;20217;-65
2021/11/16 12:42:34;;;;;;;68.35;9.13;;;;;;;;;;5071805;28;20237;-65
2021/11/16 12:45:02;;;;;;;71.40;8.30;;;;;;;;;;5071756;28;20201;-64
2021/11/16 12:47:32;;;;;;;74.43;9.23;;;;;;;;;;5072304;28;20542;-65
2021/11/16 12:50:11;;;;;;;71.60;8.68;;;;;;;;;;5071818;28;20451;-63
2021/11/16 12:52:43;;;;;;;70.35;9.13;;;;;;;;;;5071864;28;20230;-65
2021/11/16 12:55:21;;;;;;;70.63;9.48;;;;;;;;;;5071747;28;20209;-65
2021/11/16 12:57:49;;;;;;;73.38;9.23;;;;;;;;;;5071931;28;20205;-65
2021/11/16 13:00:17;;;;;;;68.10;7.97;;;;;;;;;;5069414;28;20209;-64
2021/11/16 13:02:51;;;;;;;67.93;7.93;;;;;;;;;;5071778;28;20212;-64
2021/11/16 13:05:34;;;;;;;70.05;9.15;;;;;;;;;;5071707;28;20200;-65
2021/11/16 13:08:02;;;;;;;69.25;8.80;;;;;;;;;;5071815;28;20279;-65
2021/11/16 13:10:32;;;;;;;70.63;8.27;;;;;;;;;;5072064;28;20299;-65
2021/11/16 13:13:00;;;;;;;68.70;9.48;;;;;;;;;;5071483;28;20228;-65
2021/11/16 13:15:44;;;;;;;68.45;8.82;;;;;;;;;;5071433;28;20212;-65
2021/11/16 13:18:12;;;;;;;71.63;9.35;;;;;;;;;;5071887;28;20204;-65
2021/11/16 13:20:42;;;;;;;71.68;8.40;;;;;;;;;;5070751;28;20757;-65
2021/11/16 13:23:17;;;;;;;70.93;9.27;;;;;;;;;;5071580;28;20201;-65
2021/11/16 13:25:48;;;;;;;68.88;7.78;;;;;;;;;;5071232;28;20205;-64
2021/11/16 13:28:51;;;;;;;71.88;9.20;;;;;;;;;;5071240;28;20296;-65
2021/11/16 13:31:33;;;;;;;69.85;9.32;;;;;;;;;;5068922;28;20221;-64
2021/11/16 13:34:03;;;;;;;74.07;9.32;;;;;;;;;;5071394;28;20288;-65
2021/11/16 13:36:40;;;;;;;70.25;9.55;;;;;;;;;;5071072;28;20241;-65
2021/11/16 13:39:09;;;;;;;67.97;8.85;;;;;;;;;;5071484;28;20281;-65
2021/11/16 13:41:43;;;;;;;68.35;8.93;;;;;;;;;;5071253;28;20241;-65
2021/11/16 13:44:14;;;;;;;73.00;8.77;;;;;;;;;;5071065;28;20295;-65
2021/11/16 13:46:43;;;;;;;73.00;10.18;;;;;;;;;;5071122;28;20631;-65
2021/11/16 13:49:10;;;;;;;72.28;10.48;;;;;;;;;;5071443;28;20300;-65
2021/11/16 13:51:38;;;;;;;70.82;9.25;;;;;;;;;;5071211;28;20320;-65
2021/11/16 13:54:07;;;;;;;70.00;9.60;;;;;;;;;;5071288;28;20205;-66
2021/11/16 13:56:35;;;;;;;75.35;9.18;;;;;;;;;;5070719;28;20567;-64
2021/11/16 13:59:12;;;;;;;70.65;10.13;;;;;;;;;;5071473;28;20206;-64
2021/11/16 14:01:39;;;;;;;70.85;9.30;;;;;;;;;;5071205;28;20218;-65
2021/11/16 14:04:10;;;;;;;70.20;8.67;;;;;;;;;;5068902;28;20255;-65
2021/11/16 14:06:38;;;;;;;71.70;8.68;;;;;;;;;;5070670;28;20449;-64
2021/11/16 14:09:18;;;;;;;66.80;8.20;;;;;;;;;;5071043;28;20648;-66
2021/11/16 14:11:49;;;;;;;72.47;9.07;;;;;;;;;;5062773;28;20222;-65
2021/11/16 14:14:17;;;;;;;69.00;9.00;;;;;;;;;;5060459;28;20209;-65
2021/11/16 14:16:44;;;;;;;77.57;11.83;;;;;;;;;;5070755;28;20880;-64
2021/11/16 14:19:11;;;;;;;71.22;10.27;;;;;;;;;;5071022;28;20542;-65
2021/11/16 14:21:39;;;;;;;74.00;11.15;;;;;;;;;;5070800;28;20596;-65
2021/11/16 14:24:07;;;;;;;73.97;11.25;;;;;;;;;;5071154;28;20211;-64
2021/11/16 14:26:35;;;;;;;71.93;10.02;;;;;;;;;;5070551;28;20289;-65
2021/11/16 14:29:05;;;;;;;72.80;10.88;;;;;;;;;;5071037;28;20315;-65
2021/11/16 14:31:33;;;;;;;75.40;11.10;;;;;;;;;;5071921;28;20240;-65
2021/11/16 14:34:01;;;;;;;72.27;10.73;;;;;;;;;;5074473;28;20835;-65
2021/11/16 14:36:32;;;;;;;74.35;10.60;;;;;;;;;;5074053;28;20451;-65
2021/11/16 14:39:05;;;;;;;73.75;10.10;;;;;;;;;;5074802;28;20683;-65